createdAt,value
2023-03-17T00:00:02.278Z,49
2023-03-17T00:20:02.720Z,50
2023-03-17T00:40:02.751Z,51
2023-03-17T01:00:03.061Z,52
2023-03-17T01:20:02.300Z,53
2023-03-17T01:40:02.619Z,53
2023-03-17T02:00:03.034Z,53
2023-03-17T02:20:02.370Z,53
2023-03-17T02:40:02.849Z,53
2023-03-17T03:00:03.103Z,53
2023-03-17T03:20:02.690Z,53
2023-03-17T03:40:03.070Z,53
2023-03-17T04:00:02.310Z,52
2023-03-17T04:20:02.781Z,52
2023-03-17T04:40:03.313Z,53
2023-03-17T05:00:02.886Z,53
2023-03-17T05:20:02.705Z,53
2023-03-17T05:40:03.204Z,53
2023-03-17T06:00:02.664Z,52
2023-03-17T06:20:02.434Z,52
2023-03-17T06:40:02.876Z,52
2023-03-17T07:00:03.277Z,52
2023-03-17T07:20:02.689Z,51
2023-03-17T07:40:02.930Z,51
2023-03-17T08:00:02.430Z,49
2023-03-17T08:20:03.235Z,47
2023-03-17T08:40:02.792Z,44
2023-03-17T09:00:03.054Z,42
2023-03-17T09:20:02.548Z,40
2023-03-17T09:40:04.044Z,40
2023-03-17T10:00:02.781Z,39
2023-03-17T10:20:02.512Z,38
2023-03-17T10:40:02.959Z,38
2023-03-17T11:00:02.633Z,36
2023-03-17T11:20:03.240Z,36
2023-03-17T11:40:02.473Z,35
2023-03-17T12:00:02.693Z,35
2023-03-17T12:20:03.267Z,34
2023-03-17T12:40:02.634Z,34
2023-03-17T13:00:03.260Z,34
2023-03-17T13:20:02.604Z,35
2023-03-17T13:40:02.886Z,35
2023-03-17T14:00:02.973Z,35
2023-03-17T14:20:02.856Z,34
2023-03-17T14:40:03.224Z,34
2023-03-17T15:00:02.722Z,33
2023-03-17T15:20:02.651Z,34
2023-03-17T15:40:03.035Z,35
2023-03-17T16:00:02.449Z,37
2023-03-17T16:20:02.860Z,38
2023-03-17T16:40:02.808Z,38
2023-03-17T17:00:03.306Z,39
2023-03-17T17:20:02.886Z,39
2023-03-17T17:40:02.172Z,39
2023-03-17T18:00:02.733Z,40
2023-03-17T18:20:02.476Z,41
2023-03-17T18:40:19.503Z,41
2023-03-17T19:00:02.852Z,42
2023-03-17T19:20:02.871Z,43
2023-03-17T19:40:02.235Z,43
2023-03-17T20:00:02.831Z,44
2023-03-17T20:20:02.565Z,44
2023-03-17T20:40:02.829Z,44
2023-03-17T21:00:03.438Z,45
2023-03-17T21:20:03.069Z,45
2023-03-17T21:40:02.506Z,45
2023-03-17T22:00:02.988Z,46
2023-03-17T22:20:02.297Z,46
2023-03-17T22:40:02.728Z,47
2023-03-17T23:00:02.986Z,47
2023-03-17T23:20:02.331Z,48
2023-03-17T23:40:02.736Z,48
